Time,TemperatureF,DewpointF,PressureIn,WindDirection,WindDirectionDegrees,WindSpeedMPH,WindSpeedGustMPH,Humidity,HourlyPrecipIn,Conditions,Clouds,dailyrainin,SoftwareType,DateUTC
2013-05-23 00:00:00,73.7,73.7,29.88,SSE,167,0.0,0.0,100,0.00,,,0.00,Wunderground v.1.15,2013-05-23 04:00:00,
2013-05-23 00:02:00,73.7,73.7,29.88,SSE,165,0.0,0.0,100,0.00,,,0.00,Wunderground v.1.15,2013-05-23 04:02:00,
2013-05-23 00:04:00,73.5,73.5,29.88,SSE,165,0.0,0.0,100,0.00,,,0.00,Wunderground v.1.15,2013-05-23 04:04:00,
2013-05-23 00:08:00,73.5,73.5,29.88,SSE,167,0.0,1.0,100,0.00,,,0.00,Wunderground v.1.15,2013-05-23 04:08:00,
2013-05-23 00:12:00,73.5,73.5,29.88,SSE,165,0.0,0.0,100,0.00,,,0.00,Wunderground v.1.15,2013-05-23 04:12:00,
2013-05-23 00:14:00,73.5,73.5,29.87,SSE,165,0.0,0.0,100,0.00,,,0.00,Wunderground v.1.15,2013-05-23 04:14:00,
2013-05-23 00:20:00,73.5,73.5,29.87,SSE,165,0.0,0.0,100,0.00,,,0.00,Wunderground v.1.15,2013-05-23 04:20:00,
2013-05-23 00:26:00,73.7,73.7,29.87,SSE,165,0.0,0.0,100,0.00,,,0.00,Wunderground v.1.15,2013-05-23 04:26:00,
2013-05-23 00:32:00,73.7,73.7,29.87,SSE,165,0.0,0.0,100,0.00,,,0.00,Wunderground v.1.15,2013-05-23 04:32:00,
2013-05-23 00:38:00,73.5,73.5,29.87,SSE,167,0.0,0.0,100,0.00,,,0.00,Wunderground v.1.15,2013-05-23 04:38:00,
2013-05-23 00:44:00,73.5,73.5,29.87,SSE,167,0.0,0.0,100,0.00,,,0.00,Wunderground v.1.15,2013-05-23 04:44:00,
2013-05-23 00:50:00,73.5,73.5,29.87,SSE,167,0.0,0.0,100,0.00,,,0.00,Wunderground v.1.15,2013-05-23 04:50:00,
2013-05-23 00:56:00,73.3,73.3,29.87,SSE,167,0.0,1.0,100,0.00,,,0.00,Wunderground v.1.15,2013-05-23 04:56:00,
2013-05-23 01:02:00,73.0,73.0,29.86,SSE,165,0.0,0.0,100,0.00,,,0.00,Wunderground v.1.15,2013-05-23 05:02:00,
2013-05-23 01:08:00,73.0,73.0,29.86,SSE,167,0.0,0.0,100,0.00,,,0.00,Wunderground v.1.15,2013-05-23 05:08:00,
2013-05-23 01:14:00,73.0,73.0,29.86,SSE,167,0.0,0.0,100,0.00,,,0.00,Wunderground v.1.15,2013-05-23 05:14:00,
2013-05-23 01:20:00,73.2,73.2,29.86,SSE,167,0.0,0.0,100,0.00,,,0.00,Wunderground v.1.15,2013-05-23 05:20:00,
2013-05-23 01:26:00,73.2,73.2,29.86,SSE,167,0.0,0.0,100,0.00,,,0.00,Wunderground v.1.15,2013-05-23 05:26:00,
2013-05-23 01:32:00,73.2,73.2,29.86,SSE,167,0.0,0.0,100,0.00,,,0.00,Wunderground v.1.15,2013-05-23 05:32:00,
2013-05-23 01:38:00,73.0,73.0,29.86,SSE,167,0.0,0.0,100,0.00,,,0.00,Wunderground v.1.15,2013-05-23 05:38:00,
2013-05-23 01:44:00,73.0,73.0,29.85,SSE,167,0.0,0.0,100,0.00,,,0.00,Wunderground v.1.15,2013-05-23 05:44:00,
2013-05-23 01:50:00,72.8,72.8,29.85,SSE,167,0.0,0.0,100,0.00,,,0.00,Wunderground v.1.15,2013-05-23 05:50:00,
2013-05-23 01:56:00,72.8,72.8,29.85,SSE,167,0.0,0.0,100,0.00,,,0.00,Wunderground v.1.15,2013-05-23 05:56:00,
2013-05-23 02:02:00,72.8,72.8,29.85,SSE,167,0.0,0.0,100,0.00,,,0.00,Wunderground v.1.15,2013-05-23 06:02:00,
2013-05-23 02:08:00,72.8,72.8,29.85,SSE,167,0.0,0.0,100,0.00,,,0.00,Wunderground v.1.15,2013-05-23 06:08:00,
2013-05-23 02:14:00,72.7,72.7,29.85,SSE,167,0.0,0.0,100,0.00,,,0.00,Wunderground v.1.15,2013-05-23 06:14:00,
2013-05-23 02:20:00,72.7,72.7,29.85,SSE,167,0.0,0.0,100,0.00,,,0.00,Wunderground v.1.15,2013-05-23 06:20:00,
2013-05-23 02:26:00,72.7,72.7,29.85,SSE,168,0.0,1.0,100,0.00,,,0.00,Wunderground v.1.15,2013-05-23 06:26:00,
2013-05-23 02:32:00,72.7,72.7,29.85,SSE,168,0.0,0.0,100,0.00,,,0.00,Wunderground v.1.15,2013-05-23 06:32:00,
2013-05-23 02:38:00,72.7,72.7,29.85,WSW,250,0.0,1.0,100,0.00,,,0.00,Wunderground v.1.15,2013-05-23 06:38:00,
2013-05-23 02:44:00,72.5,72.5,29.85,WSW,253,1.0,4.0,100,0.00,,,0.00,Wunderground v.1.15,2013-05-23 06:44:00,
2013-05-23 02:50:00,72.7,72.7,29.85,WSW,258,1.0,2.0,100,0.00,,,0.00,Wunderground v.1.15,2013-05-23 06:50:00,
2013-05-23 02:56:00,72.7,72.7,29.85,WSW,258,1.0,2.0,100,0.00,,,0.00,Wunderground v.1.15,2013-05-23 06:56:00,
2013-05-23 03:02:00,72.8,72.8,29.85,WSW,258,0.0,0.0,100,0.00,,,0.00,Wunderground v.1.15,2013-05-23 07:02:00,
2013-05-23 03:08:00,72.7,72.7,29.85,WSW,258,0.0,0.0,100,0.00,,,0.00,Wunderground v.1.15,2013-05-23 07:08:00,
2013-05-23 03:14:00,72.7,72.7,29.85,WSW,258,0.0,2.0,100,0.00,,,0.00,Wunderground v.1.15,2013-05-23 07:14:00,
2013-05-23 03:20:00,72.7,72.7,29.85,West,260,1.0,1.0,100,0.00,,,0.00,Wunderground v.1.15,2013-05-23 07:20:00,
2013-05-23 03:26:00,72.7,72.7,29.85,West,265,1.0,2.0,100,0.00,,,0.00,Wunderground v.1.15,2013-05-23 07:26:00,
2013-05-23 03:32:00,72.7,72.7,29.85,West,265,1.0,1.0,100,0.00,,,0.00,Wunderground v.1.15,2013-05-23 07:32:00,
2013-05-23 03:38:00,72.7,72.7,29.85,West,265,1.0,1.0,100,0.00,,,0.00,Wunderground v.1.15,2013-05-23 07:38:00,
2013-05-23 03:44:00,72.7,72.7,29.85,West,265,1.0,1.0,100,0.00,,,0.00,Wunderground v.1.15,2013-05-23 07:44:00,
2013-05-23 03:50:00,72.5,72.5,29.85,West,265,0.0,0.0,100,0.00,,,0.00,Wunderground v.1.15,2013-05-23 07:50:00,
2013-05-23 03:58:00,72.5,72.5,29.85,West,265,0.0,0.0,100,0.00,,,0.00,Wunderground v.1.15,2013-05-23 07:58:00,
2013-05-23 04:04:00,72.7,72.7,29.84,West,265,0.0,0.0,100,0.00,,,0.00,Wunderground v.1.15,2013-05-23 08:04:00,
2013-05-23 04:10:00,72.7,72.7,29.84,West,265,0.0,0.0,100,0.00,,,0.00,Wunderground v.1.15,2013-05-23 08:10:00,
2013-05-23 04:16:00,72.5,72.5,29.85,West,265,0.0,0.0,100,0.00,,,0.00,Wunderground v.1.15,2013-05-23 08:16:00,
2013-05-23 04:22:00,72.3,72.3,29.85,West,265,0.0,0.0,100,0.00,,,0.00,Wunderground v.1.15,2013-05-23 08:22:00,
2013-05-23 04:28:00,72.1,72.1,29.85,West,265,0.0,0.0,100,0.00,,,0.00,Wunderground v.1.15,2013-05-23 08:28:00,
2013-05-23 04:34:00,72.1,72.1,29.85,West,265,0.0,0.0,100,0.00,,,0.00,Wunderground v.1.15,2013-05-23 08:34:00,
2013-05-23 04:40:00,72.3,72.3,29.85,West,265,0.0,0.0,100,0.00,,,0.00,Wunderground v.1.15,2013-05-23 08:40:00,
2013-05-23 04:46:00,72.7,72.7,29.85,West,265,0.0,0.0,100,0.00,,,0.00,Wunderground v.1.15,2013-05-23 08:46:00,
2013-05-23 04:52:00,72.8,72.8,29.85,West,265,0.0,0.0,100,0.00,,,0.00,Wunderground v.1.15,2013-05-23 08:52:00,
2013-05-23 04:58:00,72.7,72.7,29.85,West,265,0.0,1.0,100,0.00,,,0.00,Wunderground v.1.15,2013-05-23 08:58:00,
2013-05-23 05:04:00,72.5,72.5,29.85,West,265,0.0,0.0,100,0.00,,,0.00,Wunderground v.1.15,2013-05-23 09:04:00,
2013-05-23 05:10:00,72.5,72.5,29.85,West,265,0.0,0.0,100,0.00,,,0.00,Wunderground v.1.15,2013-05-23 09:10:00,
2013-05-23 05:16:00,72.7,72.7,29.85,West,265,0.0,1.0,100,0.00,,,0.00,Wunderground v.1.15,2013-05-23 09:16:00,
2013-05-23 05:22:00,72.7,72.7,29.85,West,265,0.0,0.0,100,0.00,,,0.00,Wunderground v.1.15,2013-05-23 09:22:00,
2013-05-23 05:28:00,72.5,72.5,29.85,West,265,0.0,0.0,100,0.00,,,0.00,Wunderground v.1.15,2013-05-23 09:28:00,
2013-05-23 05:34:00,72.7,72.7,29.85,West,265,0.0,0.0,100,0.00,,,0.00,Wunderground v.1.15,2013-05-23 09:34:00,
2013-05-23 05:40:00,72.8,72.8,29.85,West,265,0.0,0.0,100,0.00,,,0.00,Wunderground v.1.15,2013-05-23 09:40:00,
2013-05-23 05:46:00,72.8,72.8,29.85,West,265,0.0,0.0,100,0.00,,,0.00,Wunderground v.1.15,2013-05-23 09:46:00,
2013-05-23 05:52:00,72.8,72.8,29.85,West,265,0.0,1.0,100,0.00,,,0.00,Wunderground v.1.15,2013-05-23 09:52:00,
2013-05-23 05:58:00,72.8,72.8,29.85,West,267,1.0,2.0,100,0.00,,,0.00,Wunderground v.1.15,2013-05-23 09:58:00,
2013-05-23 06:04:00,72.8,72.8,29.85,West,267,2.0,4.0,100,0.00,,,0.00,Wunderground v.1.15,2013-05-23 10:04:00,
2013-05-23 06:10:00,72.7,72.7,29.85,West,268,2.0,3.0,100,0.00,,,0.00,Wunderground v.1.15,2013-05-23 10:10:00,
2013-05-23 06:16:00,72.7,72.7,29.86,West,270,2.0,3.0,100,0.00,,,0.00,Wunderground v.1.15,2013-05-23 10:16:00,
2013-05-23 06:22:00,72.7,72.7,29.86,West,268,1.0,1.0,100,0.00,,,0.00,Wunderground v.1.15,2013-05-23 10:22:00,
2013-05-23 06:28:00,72.7,72.7,29.86,West,270,0.0,1.0,100,0.00,,,0.00,Wunderground v.1.15,2013-05-23 10:28:00,
2013-05-23 06:34:00,72.5,72.5,29.85,West,270,0.0,0.0,100,0.00,,,0.00,Wunderground v.1.15,2013-05-23 10:34:00,
2013-05-23 06:40:00,72.5,72.5,29.85,West,270,0.0,0.0,100,0.00,,,0.00,Wunderground v.1.15,2013-05-23 10:40:00,
2013-05-23 06:46:00,72.7,72.7,29.85,West,270,0.0,0.0,100,0.00,,,0.00,Wunderground v.1.15,2013-05-23 10:46:00,
2013-05-23 06:52:00,72.7,72.7,29.85,West,270,0.0,0.0,100,0.00,,,0.00,Wunderground v.1.15,2013-05-23 10:52:00,
2013-05-23 06:58:00,72.7,72.7,29.85,West,270,0.0,0.0,100,0.00,,,0.00,Wunderground v.1.15,2013-05-23 10:58:00,
2013-05-23 07:04:00,72.8,72.8,29.85,West,270,0.0,0.0,100,0.00,,,0.00,Wunderground v.1.15,2013-05-23 11:04:00,
2013-05-23 07:10:00,73.0,73.0,29.85,West,270,0.0,0.0,100,0.00,,,0.00,Wunderground v.1.15,2013-05-23 11:10:00,
2013-05-23 07:16:00,73.0,73.0,29.85,West,270,0.0,0.0,100,0.00,,,0.00,Wunderground v.1.15,2013-05-23 11:16:00,
2013-05-23 07:22:00,73.2,73.2,29.85,West,271,0.0,0.0,100,0.00,,,0.00,Wunderground v.1.15,2013-05-23 11:22:00,
2013-05-23 07:28:00,73.3,73.3,29.85,West,271,0.0,1.0,100,0.00,,,0.00,Wunderground v.1.15,2013-05-23 11:28:00,
2013-05-23 07:34:00,73.3,73.3,29.85,West,272,1.0,1.0,100,0.00,,,0.00,Wunderground v.1.15,2013-05-23 11:34:00,
2013-05-23 07:40:00,73.3,73.3,29.85,West,272,0.0,1.0,100,0.00,,,0.00,Wunderground v.1.15,2013-05-23 11:40:00,
2013-05-23 07:46:00,73.5,73.5,29.86,West,272,1.0,2.0,100,0.00,,,0.00,Wunderground v.1.15,2013-05-23 11:46:00,
2013-05-23 07:52:00,73.9,73.9,29.86,West,272,1.0,1.0,100,0.00,,,0.00,Wunderground v.1.15,2013-05-23 11:52:00,
2013-05-23 07:58:00,74.2,74.2,29.86,West,272,0.0,1.0,100,0.00,,,0.00,Wunderground v.1.15,2013-05-23 11:58:00,
2013-05-23 08:04:00,74.9,74.9,29.86,West,272,0.0,0.0,100,0.00,,,0.00,Wunderground v.1.15,2013-05-23 12:04:00,
2013-05-23 08:10:00,75.6,75.6,29.86,West,272,0.0,0.0,100,0.00,,,0.00,Wunderground v.1.15,2013-05-23 12:10:00,
2013-05-23 08:16:00,75.6,75.6,29.86,West,272,0.0,0.0,100,0.00,,,0.00,Wunderground v.1.15,2013-05-23 12:16:00,
2013-05-23 08:22:00,75.4,75.4,29.86,West,272,0.0,0.0,100,0.00,,,0.00,Wunderground v.1.15,2013-05-23 12:22:00,
2013-05-23 08:28:00,75.4,75.4,29.86,West,272,0.0,0.0,100,0.00,,,0.00,Wunderground v.1.15,2013-05-23 12:28:00,
2013-05-23 08:34:00,75.8,75.8,29.86,East,97,0.0,1.0,100,0.00,,,0.00,Wunderground v.1.15,2013-05-23 12:34:00,
2013-05-23 08:40:00,75.8,75.5,29.86,East,93,2.0,2.0,99,0.00,,,0.00,Wunderground v.1.15,2013-05-23 12:40:00,
2013-05-23 08:46:00,75.8,75.2,29.85,East,97,1.0,2.0,98,0.00,,,0.00,Wunderground v.1.15,2013-05-23 12:46:00,
2013-05-23 08:52:00,76.0,75.4,29.85,ESE,114,0.0,0.0,98,0.00,,,0.00,Wunderground v.1.15,2013-05-23 12:52:00,
2013-05-23 08:58:00,76.5,75.6,29.85,SE,141,1.0,3.0,97,0.00,,,0.00,Wunderground v.1.15,2013-05-23 12:58:00,
2013-05-23 09:04:00,77.0,75.8,29.85,ESE,116,2.0,2.0,96,0.00,,,0.00,Wunderground v.1.15,2013-05-23 13:04:00,
2013-05-23 09:10:00,77.0,75.8,29.85,East,93,2.0,2.0,96,0.00,,,0.00,Wunderground v.1.15,2013-05-23 13:10:00,
2013-05-23 09:16:00,77.4,75.5,29.85,ESE,110,2.0,2.0,94,0.00,,,0.00,Wunderground v.1.15,2013-05-23 13:16:00,
2013-05-23 09:22:00,77.4,75.5,29.85,South,182,2.0,3.0,94,0.00,,,0.00,Wunderground v.1.15,2013-05-23 13:22:00,
2013-05-23 09:28:00,76.5,74.0,29.85,SSE,157,2.0,3.0,92,0.00,,,0.00,Wunderground v.1.15,2013-05-23 13:28:00,
2013-05-23 09:34:00,76.8,74.3,29.84,SSE,152,2.0,2.0,92,0.00,,,0.00,Wunderground v.1.15,2013-05-23 13:34:00,
2013-05-23 09:40:00,77.9,75.7,29.84,SW,216,2.0,3.0,93,0.00,,,0.00,Wunderground v.1.15,2013-05-23 13:40:00,
2013-05-23 09:46:00,78.5,75.7,29.85,SE,145,2.0,3.0,91,0.00,,,0.00,Wunderground v.1.15,2013-05-23 13:46:00,
2013-05-23 09:52:00,78.6,75.4,29.85,South,175,2.0,3.0,90,0.00,,,0.00,Wunderground v.1.15,2013-05-23 13:52:00,
2013-05-23 09:58:00,78.1,75.3,29.85,SSE,152,3.0,4.0,91,0.00,,,0.00,Wunderground v.1.15,2013-05-23 13:58:00,
2013-05-23 10:04:00,77.7,75.5,29.85,SSW,198,3.0,3.0,93,0.00,,,0.00,Wunderground v.1.15,2013-05-23 14:04:00,
2013-05-23 10:10:00,77.4,75.5,29.85,SW,215,3.0,3.0,94,0.00,,,0.00,Wunderground v.1.15,2013-05-23 14:10:00,
2013-05-23 10:16:00,77.4,75.9,29.84,South,171,3.0,3.0,95,0.00,,,0.00,Wunderground v.1.15,2013-05-23 14:16:00,
2013-05-23 10:22:00,77.7,75.8,29.84,SSE,154,4.0,6.0,94,0.00,,,0.00,Wunderground v.1.15,2013-05-23 14:22:00,
2013-05-23 10:28:00,78.5,76.0,29.84,SSE,158,4.0,6.0,92,0.00,,,0.00,Wunderground v.1.15,2013-05-23 14:28:00,
2013-05-23 10:34:00,78.3,75.5,29.84,SSE,147,4.0,7.0,91,0.00,,,0.00,Wunderground v.1.15,2013-05-23 14:34:00,
2013-05-23 10:40:00,78.1,75.9,29.84,SSE,151,3.0,3.0,93,0.00,,,0.00,Wunderground v.1.15,2013-05-23 14:40:00,
2013-05-23 10:46:00,77.6,74.8,29.84,SSW,198,2.0,4.0,91,0.00,,,0.00,Wunderground v.1.15,2013-05-23 14:46:00,
2013-05-23 10:52:00,77.9,74.7,29.84,SW,223,2.0,5.0,90,0.00,,,0.00,Wunderground v.1.15,2013-05-23 14:52:00,
2013-05-23 10:58:00,78.1,74.6,29.84,SSW,205,4.0,10.0,89,0.00,,,0.00,Wunderground v.1.15,2013-05-23 14:58:00,
2013-05-23 11:04:00,78.3,75.1,29.84,SW,223,3.0,8.0,90,0.00,,,0.00,Wunderground v.1.15,2013-05-23 15:04:00,
2013-05-23 11:10:00,77.9,74.4,29.84,SSE,154,3.0,3.0,89,0.00,,,0.00,Wunderground v.1.15,2013-05-23 15:10:00,
2013-05-23 11:16:00,77.9,74.7,29.84,SSW,213,3.0,5.0,90,0.00,,,0.00,Wunderground v.1.15,2013-05-23 15:16:00,
2013-05-23 11:22:00,77.7,74.5,29.84,SW,226,3.0,4.0,90,0.00,,,0.00,Wunderground v.1.15,2013-05-23 15:22:00,
2013-05-23 11:28:00,77.4,74.9,29.84,SW,226,3.0,4.0,92,0.00,,,0.00,Wunderground v.1.15,2013-05-23 15:28:00,
2013-05-23 11:34:00,76.8,75.3,29.85,SW,222,3.0,3.0,95,0.00,,,0.01,Wunderground v.1.15,2013-05-23 15:34:00,
2013-05-23 11:40:00,76.3,75.4,29.85,SW,223,3.0,3.0,97,0.00,,,0.01,Wunderground v.1.15,2013-05-23 15:40:00,
2013-05-23 11:46:00,76.3,75.4,29.85,SSW,198,3.0,5.0,97,0.00,,,0.01,Wunderground v.1.15,2013-05-23 15:46:00,
2013-05-23 11:52:00,77.2,76.3,29.85,SW,227,3.0,5.0,97,0.00,,,0.01,Wunderground v.1.15,2013-05-23 15:52:00,
2013-05-23 11:58:00,77.9,76.0,29.85,WSW,246,4.0,6.0,94,0.00,,,0.01,Wunderground v.1.15,2013-05-23 15:58:00,
2013-05-23 12:04:00,78.6,75.8,29.85,SSW,206,4.0,4.0,91,0.00,,,0.01,Wunderground v.1.15,2013-05-23 16:04:00,
2013-05-23 12:10:00,79.6,76.7,29.85,SSE,152,3.0,3.0,91,0.00,,,0.01,Wunderground v.1.15,2013-05-23 16:10:00,
2013-05-23 12:16:00,79.9,76.7,29.85,SE,138,5.0,8.0,90,0.00,,,0.01,Wunderground v.1.15,2013-05-23 16:16:00,
2013-05-23 12:22:00,79.9,76.4,29.85,SSE,161,7.0,10.0,89,0.00,,,0.01,Wunderground v.1.15,2013-05-23 16:22:00,
2013-05-23 12:28:00,79.9,76.4,29.85,South,169,8.0,10.0,89,0.00,,,0.01,Wunderground v.1.15,2013-05-23 16:28:00,
2013-05-23 12:34:00,80.1,76.9,29.84,SSE,162,7.0,8.0,90,0.00,,,0.01,Wunderground v.1.15,2013-05-23 16:34:00,
2013-05-23 12:40:00,80.9,76.7,29.84,SW,216,5.0,5.0,87,0.00,,,0.01,Wunderground v.1.15,2013-05-23 16:40:00,
2013-05-23 12:46:00,81.6,77.0,29.83,SSW,213,4.0,5.0,86,0.00,,,0.01,Wunderground v.1.15,2013-05-23 16:46:00,
2013-05-23 12:52:00,80.7,76.1,29.83,SSE,157,5.0,5.0,86,0.00,,,0.01,Wunderground v.1.15,2013-05-23 16:52:00,
2013-05-23 12:58:00,79.4,75.5,29.83,South,186,4.0,5.0,88,0.00,,,0.01,Wunderground v.1.15,2013-05-23 16:58:00,
2013-05-23 13:04:00,78.5,75.7,29.83,South,179,4.0,7.0,91,0.00,,,0.01,Wunderground v.1.15,2013-05-23 17:04:00,
2013-05-23 13:10:00,77.4,75.5,29.83,SSE,161,4.0,6.0,94,0.00,,,0.02,Wunderground v.1.15,2013-05-23 17:10:00,
2013-05-23 13:16:00,76.3,76.0,29.83,SSE,152,6.0,11.0,99,0.12,,,0.05,Wunderground v.1.15,2013-05-23 17:16:00,
2013-05-23 13:22:00,76.0,76.0,29.83,SE,136,6.0,7.0,100,0.06,,,0.05,Wunderground v.1.15,2013-05-23 17:22:00,
2013-05-23 13:28:00,75.8,75.8,29.83,SE,130,5.0,11.0,100,0.04,,,0.05,Wunderground v.1.15,2013-05-23 17:28:00,
2013-05-23 13:34:00,76.0,76.0,29.83,SE,133,4.0,5.0,100,0.00,,,0.05,Wunderground v.1.15,2013-05-23 17:34:00,
2013-05-23 13:40:00,76.1,76.1,29.83,SW,220,3.0,3.0,100,0.00,,,0.05,Wunderground v.1.15,2013-05-23 17:40:00,
2013-05-23 13:46:00,76.5,76.5,29.82,SSW,212,2.0,8.0,100,0.00,,,0.05,Wunderground v.1.15,2013-05-23 17:46:00,
2013-05-23 13:52:00,76.8,75.9,29.82,South,181,3.0,7.0,97,0.00,,,0.05,Wunderground v.1.15,2013-05-23 17:52:00,
2013-05-23 13:58:00,77.0,75.8,29.82,SE,141,4.0,7.0,96,0.00,,,0.05,Wunderground v.1.15,2013-05-23 17:58:00,
2013-05-23 14:04:00,77.4,76.5,29.82,SE,143,6.0,6.0,97,0.00,,,0.05,Wunderground v.1.15,2013-05-23 18:04:00,
2013-05-23 14:10:00,77.7,75.2,29.82,SSE,161,6.0,6.0,92,0.00,,,0.05,Wunderground v.1.15,2013-05-23 18:10:00,
2013-05-23 14:16:00,78.3,74.8,29.81,South,184,6.0,12.0,89,0.00,,,0.05,Wunderground v.1.15,2013-05-23 18:16:00,
2013-05-23 14:22:00,79.0,74.5,29.81,SSW,203,6.0,7.0,86,0.00,,,0.05,Wunderground v.1.15,2013-05-23 18:22:00,
2013-05-23 14:28:00,79.6,74.7,29.81,SSW,193,6.0,11.0,85,0.00,,,0.05,Wunderground v.1.15,2013-05-23 18:28:00,
2013-05-23 14:34:00,80.3,76.4,29.81,SSE,165,5.0,9.0,88,0.00,,,0.05,Wunderground v.1.15,2013-05-23 18:34:00,
2013-05-23 14:40:00,79.8,75.9,29.81,SW,217,6.0,6.0,88,0.00,,,0.05,Wunderground v.1.15,2013-05-23 18:40:00,
2013-05-23 14:46:00,79.9,74.6,29.81,SSE,151,6.0,11.0,84,0.00,,,0.05,Wunderground v.1.15,2013-05-23 18:46:00,
2013-05-23 14:52:00,80.1,75.5,29.81,SW,234,6.0,14.0,86,0.00,,,0.05,Wunderground v.1.15,2013-05-23 18:52:00,
2013-05-23 14:58:00,80.1,74.5,29.81,South,169,7.0,14.0,83,0.00,,,0.05,Wunderground v.1.15,2013-05-23 18:58:00,
2013-05-23 15:04:00,80.5,74.5,29.80,South,181,6.0,7.0,82,0.00,,,0.05,Wunderground v.1.15,2013-05-23 19:04:00,
2013-05-23 15:10:00,81.1,75.1,29.80,SSE,165,5.0,5.0,82,0.00,,,0.05,Wunderground v.1.15,2013-05-23 19:10:00,
2013-05-23 15:16:00,81.1,74.7,29.79,SW,229,6.0,6.0,81,0.00,,,0.05,Wunderground v.1.15,2013-05-23 19:16:00,
2013-05-23 15:22:00,81.1,75.4,29.79,SW,234,7.0,13.0,83,0.00,,,0.05,Wunderground v.1.15,2013-05-23 19:22:00,
2013-05-23 15:28:00,80.1,74.1,29.79,SSW,205,8.0,13.0,82,0.00,,,0.05,Wunderground v.1.15,2013-05-23 19:28:00,
2013-05-23 15:34:00,79.9,74.6,29.79,SW,229,6.0,7.0,84,0.00,,,0.05,Wunderground v.1.15,2013-05-23 19:34:00,
2013-05-23 15:40:00,79.9,75.3,29.79,SE,131,6.0,6.0,86,0.00,,,0.05,Wunderground v.1.15,2013-05-23 19:40:00,
2013-05-23 15:46:00,80.5,75.6,29.79,SW,233,5.0,6.0,85,0.00,,,0.05,Wunderground v.1.15,2013-05-23 19:46:00,
2013-05-23 15:52:00,80.9,75.6,29.79,SW,215,5.0,6.0,84,0.00,,,0.05,Wunderground v.1.15,2013-05-23 19:52:00,
2013-05-23 15:58:00,81.2,75.9,29.79,SSW,195,6.0,11.0,84,0.00,,,0.05,Wunderground v.1.15,2013-05-23 19:58:00,
2013-05-23 16:04:00,81.2,75.5,29.78,SW,226,6.0,9.0,83,0.00,,,0.05,Wunderground v.1.15,2013-05-23 20:04:00,
2013-05-23 16:10:00,81.1,75.8,29.78,SW,230,7.0,7.0,84,0.00,,,0.05,Wunderground v.1.15,2013-05-23 20:10:00,
2013-05-23 16:16:00,80.3,75.0,29.78,South,174,8.0,13.0,84,0.00,,,0.05,Wunderground v.1.15,2013-05-23 20:16:00,
2013-05-23 16:22:00,80.5,74.9,29.78,South,189,7.0,14.0,83,0.00,,,0.05,Wunderground v.1.15,2013-05-23 20:22:00,
2013-05-23 16:28:00,81.1,75.1,29.78,SSW,199,7.0,14.0,82,0.00,,,0.05,Wunderground v.1.15,2013-05-23 20:28:00,
2013-05-23 16:34:00,80.9,74.1,29.77,WSW,246,6.0,8.0,80,0.00,,,0.05,Wunderground v.1.15,2013-05-23 20:34:00,
2013-05-23 16:40:00,81.1,75.1,29.77,SSW,213,6.0,9.0,82,0.00,,,0.05,Wunderground v.1.15,2013-05-23 20:40:00,
2013-05-23 16:46:00,80.7,74.7,29.77,SW,220,7.0,13.0,82,0.00,,,0.05,Wunderground v.1.15,2013-05-23 20:46:00,
2013-05-23 16:52:00,80.3,75.4,29.77,SSW,209,10.0,13.0,85,0.00,,,0.05,Wunderground v.1.15,2013-05-23 20:52:00,
2013-05-23 16:58:00,79.8,74.9,29.77,SW,229,8.0,13.0,85,0.00,,,0.05,Wunderground v.1.15,2013-05-23 20:58:00,
2013-05-23 17:04:00,79.6,74.7,29.77,WSW,247,8.0,11.0,85,0.00,,,0.05,Wunderground v.1.15,2013-05-23 21:04:00,
2013-05-23 17:10:00,78.8,74.3,29.77,SW,233,7.0,7.0,86,0.00,,,0.05,Wunderground v.1.15,2013-05-23 21:10:00,
2013-05-23 17:16:00,79.0,74.5,29.77,West,263,6.0,7.0,86,0.00,,,0.05,Wunderground v.1.15,2013-05-23 21:16:00,
2013-05-23 17:22:00,79.2,74.3,29.77,SW,215,7.0,7.0,85,0.00,,,0.05,Wunderground v.1.15,2013-05-23 21:22:00,
2013-05-23 17:28:00,78.6,74.1,29.77,SSW,199,8.0,8.0,86,0.00,,,0.05,Wunderground v.1.15,2013-05-23 21:28:00,
2013-05-23 17:34:00,79.2,74.6,29.77,WSW,240,8.0,13.0,86,0.00,,,0.05,Wunderground v.1.15,2013-05-23 21:34:00,
2013-05-23 17:40:00,79.2,74.6,29.77,WSW,237,9.0,9.0,86,0.00,,,0.05,Wunderground v.1.15,2013-05-23 21:40:00,
2013-05-23 17:46:00,79.8,74.5,29.76,WSW,250,7.0,9.0,84,0.00,,,0.05,Wunderground v.1.15,2013-05-23 21:46:00,
2013-05-23 17:52:00,79.8,74.9,29.76,SSW,210,7.0,7.0,85,0.00,,,0.05,Wunderground v.1.15,2013-05-23 21:52:00,
2013-05-23 17:58:00,79.2,74.6,29.76,WSW,237,8.0,20.0,86,0.00,,,0.05,Wunderground v.1.15,2013-05-23 21:58:00,
2013-05-23 18:04:00,79.6,74.3,29.76,WSW,247,8.0,16.0,84,0.00,,,0.05,Wunderground v.1.15,2013-05-23 22:04:00,
2013-05-23 18:10:00,79.8,74.9,29.76,SW,233,8.0,8.0,85,0.00,,,0.05,Wunderground v.1.15,2013-05-23 22:10:00,
2013-05-23 18:16:00,79.6,74.3,29.76,SW,229,6.0,9.0,84,0.00,,,0.05,Wunderground v.1.15,2013-05-23 22:16:00,
2013-05-23 18:22:00,79.6,73.6,29.76,West,263,7.0,13.0,82,0.00,,,0.05,Wunderground v.1.15,2013-05-23 22:22:00,
2013-05-23 18:28:00,79.8,73.4,29.76,WSW,248,7.0,13.0,81,0.00,,,0.05,Wunderground v.1.15,2013-05-23 22:28:00,
2013-05-23 18:34:00,79.4,73.4,29.76,SW,232,8.0,10.0,82,0.00,,,0.05,Wunderground v.1.15,2013-05-23 22:34:00,
2013-05-23 18:40:00,79.0,73.4,29.76,WSW,251,7.0,8.0,83,0.00,,,0.05,Wunderground v.1.15,2013-05-23 22:40:00,
2013-05-23 18:46:00,79.0,74.1,29.77,SW,233,7.0,12.0,85,0.00,,,0.05,Wunderground v.1.15,2013-05-23 22:46:00,
2013-05-23 18:52:00,78.6,73.0,29.77,WSW,241,7.0,12.0,83,0.00,,,0.05,Wunderground v.1.15,2013-05-23 22:52:00,
2013-05-23 18:58:00,78.5,72.9,29.77,SW,233,9.0,12.0,83,0.00,,,0.05,Wunderground v.1.15,2013-05-23 22:58:00,
2013-05-23 19:04:00,78.5,73.3,29.76,SW,223,7.0,8.0,84,0.00,,,0.05,Wunderground v.1.15,2013-05-23 23:04:00,
2013-05-23 19:10:00,78.5,72.9,29.76,SW,233,7.0,17.0,83,0.00,,,0.05,Wunderground v.1.15,2013-05-23 23:10:00,
2013-05-23 19:16:00,78.3,73.1,29.76,WSW,241,8.0,17.0,84,0.00,,,0.05,Wunderground v.1.15,2013-05-23 23:16:00,
2013-05-23 19:22:00,78.1,72.9,29.76,West,260,8.0,8.0,84,0.00,,,0.05,Wunderground v.1.15,2013-05-23 23:22:00,
2013-05-23 19:28:00,78.1,73.2,29.76,WSW,257,8.0,14.0,85,0.00,,,0.05,Wunderground v.1.15,2013-05-23 23:28:00,
2013-05-23 19:34:00,77.9,73.4,29.76,West,261,7.0,8.0,86,0.00,,,0.05,Wunderground v.1.15,2013-05-23 23:34:00,
2013-05-23 19:40:00,77.7,73.5,29.76,West,261,5.0,6.0,87,0.00,,,0.05,Wunderground v.1.15,2013-05-23 23:40:00,
2013-05-23 19:46:00,77.4,73.6,29.76,West,274,5.0,13.0,88,0.00,,,0.05,Wunderground v.1.15,2013-05-23 23:46:00,
2013-05-23 19:52:00,77.0,73.5,29.76,WSW,250,6.0,6.0,89,0.00,,,0.05,Wunderground v.1.15,2013-05-23 23:52:00,
2013-05-23 19:58:00,76.8,73.6,29.76,WSW,244,6.0,10.0,90,0.00,,,0.05,Wunderground v.1.15,2013-05-23 23:58:00,
2013-05-23 20:04:00,76.7,73.9,29.77,West,264,5.0,6.0,91,0.00,,,0.05,Wunderground v.1.15,2013-05-24 00:04:00,
2013-05-23 20:10:00,76.7,73.9,29.77,WSW,244,4.0,4.0,91,0.00,,,0.05,Wunderground v.1.15,2013-05-24 00:10:00,
2013-05-23 20:16:00,76.5,73.7,29.78,West,268,4.0,6.0,91,0.00,,,0.05,Wunderground v.1.15,2013-05-24 00:16:00,
2013-05-23 20:22:00,76.5,73.7,29.78,West,270,5.0,5.0,91,0.00,,,0.05,Wunderground v.1.15,2013-05-24 00:22:00,
2013-05-23 20:28:00,76.3,73.8,29.78,West,265,5.0,7.0,92,0.00,,,0.05,Wunderground v.1.15,2013-05-24 00:28:00,
2013-05-23 20:34:00,76.1,73.6,29.78,SW,226,4.0,9.0,92,0.00,,,0.05,Wunderground v.1.15,2013-05-24 00:34:00,
2013-05-23 20:40:00,76.1,73.9,29.78,WSW,256,5.0,5.0,93,0.00,,,0.05,Wunderground v.1.15,2013-05-24 00:40:00,
2013-05-23 20:46:00,76.0,73.8,29.78,SW,236,5.0,5.0,93,0.00,,,0.05,Wunderground v.1.15,2013-05-24 00:46:00,
2013-05-23 20:52:00,76.0,73.8,29.78,SW,229,4.0,7.0,93,0.00,,,0.05,Wunderground v.1.15,2013-05-24 00:52:00,
2013-05-23 20:58:00,75.8,73.9,29.78,SW,226,5.0,7.0,94,0.00,,,0.05,Wunderground v.1.15,2013-05-24 00:58:00,
2013-05-23 21:04:00,75.8,73.9,29.78,WSW,256,4.0,4.0,94,0.00,,,0.05,Wunderground v.1.15,2013-05-24 01:04:00,
2013-05-23 21:10:00,75.8,73.9,29.78,WSW,243,4.0,4.0,94,0.00,,,0.05,Wunderground v.1.15,2013-05-24 01:10:00,
2013-05-23 21:16:00,75.8,73.9,29.79,WSW,240,5.0,10.0,94,0.00,,,0.05,Wunderground v.1.15,2013-05-24 01:16:00,
2013-05-23 21:22:00,75.8,73.9,29.79,SW,229,5.0,5.0,94,0.00,,,0.05,Wunderground v.1.15,2013-05-24 01:22:00,
2013-05-23 21:28:00,76.0,74.1,29.79,West,267,5.0,5.0,94,0.00,,,0.05,Wunderground v.1.15,2013-05-24 01:28:00,
2013-05-23 21:34:00,76.0,74.5,29.80,WSW,240,5.0,11.0,95,0.00,,,0.05,Wunderground v.1.15,2013-05-24 01:34:00,
2013-05-23 21:40:00,76.0,74.5,29.80,West,263,5.0,5.0,95,0.00,,,0.05,Wunderground v.1.15,2013-05-24 01:40:00,
2013-05-23 21:46:00,76.0,74.8,29.80,West,260,5.0,8.0,96,0.00,,,0.05,Wunderground v.1.15,2013-05-24 01:46:00,
2013-05-23 21:52:00,75.8,74.6,29.80,West,268,5.0,5.0,96,0.00,,,0.05,Wunderground v.1.15,2013-05-24 01:52:00,
2013-05-23 21:58:00,75.8,74.6,29.80,WSW,250,4.0,10.0,96,0.00,,,0.05,Wunderground v.1.15,2013-05-24 01:58:00,
2013-05-23 22:04:00,75.8,74.9,29.80,WSW,246,4.0,7.0,97,0.00,,,0.05,Wunderground v.1.15,2013-05-24 02:04:00,
2013-05-23 22:10:00,75.8,74.9,29.80,West,260,5.0,7.0,97,0.00,,,0.05,Wunderground v.1.15,2013-05-24 02:10:00,
2013-05-23 22:16:00,75.6,74.7,29.80,SW,223,5.0,7.0,97,0.00,,,0.05,Wunderground v.1.15,2013-05-24 02:16:00,
2013-05-23 22:22:00,75.6,74.7,29.80,SW,224,5.0,7.0,97,0.00,,,0.05,Wunderground v.1.15,2013-05-24 02:22:00,
2013-05-23 22:28:00,75.6,75.0,29.80,WSW,241,5.0,7.0,98,0.00,,,0.05,Wunderground v.1.15,2013-05-24 02:28:00,
2013-05-23 22:34:00,75.6,75.0,29.81,West,261,5.0,5.0,98,0.00,,,0.05,Wunderground v.1.15,2013-05-24 02:34:00,
2013-05-23 22:40:00,75.6,75.0,29.81,West,264,4.0,4.0,98,0.00,,,0.05,Wunderground v.1.15,2013-05-24 02:40:00,
2013-05-23 22:46:00,75.4,75.1,29.81,WSW,244,5.0,5.0,99,0.00,,,0.05,Wunderground v.1.15,2013-05-24 02:46:00,
2013-05-23 22:52:00,75.4,75.1,29.81,West,263,5.0,6.0,99,0.00,,,0.05,Wunderground v.1.15,2013-05-24 02:52:00,
2013-05-23 22:58:00,75.4,75.1,29.81,WSW,254,4.0,8.0,99,0.00,,,0.05,Wunderground v.1.15,2013-05-24 02:58:00,
2013-05-23 23:04:00,75.4,75.1,29.81,WSW,254,4.0,5.0,99,0.00,,,0.00,Wunderground v.1.15,2013-05-24 03:04:00,
2013-05-23 23:10:00,75.3,75.0,29.81,SW,230,5.0,7.0,99,0.00,,,0.00,Wunderground v.1.15,2013-05-24 03:10:00,
2013-05-23 23:16:00,75.3,75.0,29.81,WSW,247,5.0,7.0,99,0.00,,,0.00,Wunderground v.1.15,2013-05-24 03:16:00,
2013-05-23 23:22:00,75.3,75.3,29.81,WSW,241,4.0,5.0,100,0.00,,,0.00,Wunderground v.1.15,2013-05-24 03:22:00,
2013-05-23 23:28:00,75.1,75.1,29.81,WSW,243,4.0,6.0,100,0.00,,,0.00,Wunderground v.1.15,2013-05-24 03:28:00,
2013-05-23 23:34:00,75.1,75.1,29.81,WSW,253,4.0,8.0,100,0.00,,,0.00,Wunderground v.1.15,2013-05-24 03:34:00,
2013-05-23 23:40:00,74.9,74.9,29.81,West,280,5.0,5.0,100,0.00,,,0.00,Wunderground v.1.15,2013-05-24 03:40:00,
2013-05-23 23:46:00,74.9,74.9,29.81,WSW,254,6.0,10.0,100,0.00,,,0.00,Wunderground v.1.15,2013-05-24 03:46:00,
2013-05-23 23:52:00,74.9,74.6,29.81,WSW,253,6.0,7.0,99,0.00,,,0.00,Wunderground v.1.15,2013-05-24 03:52:00,
2013-05-23 23:58:00,74.7,74.1,29.81,WSW,257,6.0,7.0,98,0.00,,,0.00,Wunderground v.1.15,2013-05-24 03:58:00,